sensor_id;sensor_type;location;lat;lon;timestamp;P1;durP1;ratioP1;P2;durP2;ratioP2
43690;SDS011;29293;52.190;21.226;2022-08-03T00:03:46;15.40;;;9.20;;
43690;SDS011;29293;52.190;21.226;2022-08-03T00:18:52;14.00;;;10.50;;
43690;SDS011;29293;52.190;21.226;2022-08-03T00:33:58;26.10;;;11.70;;
43690;SDS011;29293;52.190;21.226;2022-08-03T00:49:04;14.90;;;11.20;;
43690;SDS011;29293;52.190;21.226;2022-08-03T01:04:10;15.80;;;11.60;;
43690;SDS011;29293;52.190;21.226;2022-08-03T01:19:23;23.10;;;12.70;;
43690;SDS011;29293;52.190;21.226;2022-08-03T01:34:50;20.20;;;12.60;;
43690;SDS011;29293;52.190;21.226;2022-08-03T01:50:00;16.10;;;13.30;;
43690;SDS011;29293;52.190;21.226;2022-08-03T02:05:09;28.90;;;13.30;;
43690;SDS011;29293;52.190;21.226;2022-08-03T02:20:16;19.50;;;13.20;;
43690;SDS011;29293;52.190;21.226;2022-08-03T02:51:23;22.80;;;15.20;;
43690;SDS011;29293;52.190;21.226;2022-08-03T03:06:34;23.80;;;15.20;;
43690;SDS011;29293;52.190;21.226;2022-08-03T03:37:58;19.20;;;14.70;;
43690;SDS011;29293;52.190;21.226;2022-08-03T03:53:07;24.20;;;14.90;;
43690;SDS011;29293;52.190;21.226;2022-08-03T04:39:28;20.10;;;16.10;;
43690;SDS011;29293;52.190;21.226;2022-08-03T04:54:39;17.50;;;14.70;;
43690;SDS011;29293;52.190;21.226;2022-08-03T05:09:46;12.90;;;10.70;;
43690;SDS011;29293;52.190;21.226;2022-08-03T05:24:52;12.60;;;9.20;;
43690;SDS011;29293;52.190;21.226;2022-08-03T05:39:58;12.10;;;9.10;;
43690;SDS011;29293;52.190;21.226;2022-08-03T05:55:05;11.20;;;9.20;;
43690;SDS011;29293;52.190;21.226;2022-08-03T06:10:14;17.60;;;12.60;;
43690;SDS011;29293;52.190;21.226;2022-08-03T06:25:20;11.00;;;9.80;;
43690;SDS011;29293;52.190;21.226;2022-08-03T06:40:27;14.20;;;12.60;;
43690;SDS011;29293;52.190;21.226;2022-08-03T06:55:34;14.10;;;12.00;;
43690;SDS011;29293;52.190;21.226;2022-08-03T07:10:40;11.60;;;10.10;;
43690;SDS011;29293;52.190;21.226;2022-08-03T07:25:46;14.00;;;10.30;;
43690;SDS011;29293;52.190;21.226;2022-08-03T07:40:53;13.70;;;10.70;;
43690;SDS011;29293;52.190;21.226;2022-08-03T07:55:59;16.50;;;14.60;;
43690;SDS011;29293;52.190;21.226;2022-08-03T08:11:05;14.10;;;11.90;;
43690;SDS011;29293;52.190;21.226;2022-08-03T08:26:11;18.30;;;15.10;;
43690;SDS011;29293;52.190;21.226;2022-08-03T08:41:17;12.50;;;11.20;;
43690;SDS011;29293;52.190;21.226;2022-08-03T08:56:24;10.40;;;7.50;;
43690;SDS011;29293;52.190;21.226;2022-08-03T09:11:31;7.10;;;6.40;;
43690;SDS011;29293;52.190;21.226;2022-08-03T09:26:37;5.90;;;5.20;;
43690;SDS011;29293;52.190;21.226;2022-08-03T09:42:04;8.50;;;5.60;;
43690;SDS011;29293;52.190;21.226;2022-08-03T09:57:20;12.10;;;6.10;;
43690;SDS011;29293;52.190;21.226;2022-08-03T10:12:28;10.60;;;5.90;;
43690;SDS011;29293;52.190;21.226;2022-08-03T10:27:34;8.40;;;6.70;;
43690;SDS011;29293;52.190;21.226;2022-08-03T10:42:42;8.00;;;5.80;;
43690;SDS011;29293;52.190;21.226;2022-08-03T11:12:59;7.00;;;5.60;;
43690;SDS011;29293;52.190;21.226;2022-08-03T11:28:27;7.30;;;5.10;;
43690;SDS011;29293;52.190;21.226;2022-08-03T11:43:45;8.40;;;5.60;;
43690;SDS011;29293;52.190;21.226;2022-08-03T11:58:51;6.60;;;5.90;;
43690;SDS011;29293;52.190;21.226;2022-08-03T12:13:58;6.90;;;6.20;;
43690;SDS011;29293;52.190;21.226;2022-08-03T12:29:04;8.60;;;5.80;;
43690;SDS011;29293;52.190;21.226;2022-08-03T12:44:10;8.50;;;5.50;;
43690;SDS011;29293;52.190;21.226;2022-08-03T12:59:26;6.70;;;5.40;;
43690;SDS011;29293;52.190;21.226;2022-08-03T14:46:48;7.30;;;5.30;;
43690;SDS011;29293;52.190;21.226;2022-08-03T15:01:54;7.40;;;4.70;;
43690;SDS011;29293;52.190;21.226;2022-08-03T15:17:00;6.60;;;5.30;;
43690;SDS011;29293;52.190;21.226;2022-08-03T15:32:06;5.40;;;4.70;;
43690;SDS011;29293;52.190;21.226;2022-08-03T15:47:11;8.30;;;5.10;;
43690;SDS011;29293;52.190;21.226;2022-08-03T16:02:18;6.10;;;5.20;;
43690;SDS011;29293;52.190;21.226;2022-08-03T16:17:24;10.60;;;5.90;;
43690;SDS011;29293;52.190;21.226;2022-08-03T18:05:38;11.80;;;7.70;;
43690;SDS011;29293;52.190;21.226;2022-08-03T18:36:35;9.00;;;8.10;;
43690;SDS011;29293;52.190;21.226;2022-08-03T18:51:42;10.40;;;9.20;;
43690;SDS011;29293;52.190;21.226;2022-08-03T19:06:50;12.80;;;9.20;;
43690;SDS011;29293;52.190;21.226;2022-08-03T19:22:07;18.70;;;9.50;;
43690;SDS011;29293;52.190;21.226;2022-08-03T19:37:21;11.40;;;9.40;;
43690;SDS011;29293;52.190;21.226;2022-08-03T19:52:29;20.60;;;10.40;;
43690;SDS011;29293;52.190;21.226;2022-08-03T20:07:39;14.30;;;10.40;;
43690;SDS011;29293;52.190;21.226;2022-08-03T20:22:46;15.90;;;10.40;;
43690;SDS011;29293;52.190;21.226;2022-08-03T20:37:55;20.00;;;10.90;;
43690;SDS011;29293;52.190;21.226;2022-08-03T20:53:04;16.70;;;11.20;;
43690;SDS011;29293;52.190;21.226;2022-08-03T21:08:11;15.10;;;10.80;;
43690;SDS011;29293;52.190;21.226;2022-08-03T21:23:18;14.00;;;11.20;;
43690;SDS011;29293;52.190;21.226;2022-08-03T21:39:05;18.90;;;11.50;;
43690;SDS011;29293;52.190;21.226;2022-08-03T22:40:59;16.20;;;10.60;;
43690;SDS011;29293;52.190;21.226;2022-08-03T22:56:06;13.30;;;10.90;;
43690;SDS011;29293;52.190;21.226;2022-08-03T23:32:23;16.20;;;10.00;;
43690;SDS011;29293;52.190;21.226;2022-08-03T23:47:31;12.00;;;9.00;;
